createdAt,value
2022-08-07T00:05:09.816Z,100568.31
2022-08-07T00:10:48.065Z,100577.47
2022-08-07T00:16:27.890Z,100570.38
2022-08-07T00:22:02.101Z,100578.16
2022-08-07T00:27:35.777Z,100578.72
2022-08-07T00:33:22.434Z,100573.06
2022-08-07T00:38:53.409Z,100578.34
2022-08-07T00:44:23.149Z,100585.50
2022-08-07T00:50:20.040Z,100578.59
2022-08-07T00:56:02.736Z,100574.75
2022-08-07T01:01:44.659Z,100576.94
2022-08-07T01:07:14.485Z,100581.91
2022-08-07T01:12:54.079Z,100581.50
2022-08-07T01:18:29.198Z,100578.19
2022-08-07T01:23:59.839Z,100577.72
2022-08-07T01:29:31.484Z,100578.81
2022-08-07T01:35:08.636Z,100589.88
2022-08-07T01:40:41.785Z,100584.09
2022-08-07T01:46:12.691Z,100591.19
2022-08-07T01:52:02.327Z,100585.41
2022-08-07T01:58:06.070Z,100581.28
2022-08-07T02:03:48.984Z,100579.38
2022-08-07T02:09:43.580Z,100594.28
2022-08-07T02:15:16.425Z,100592.69
2022-08-07T02:20:48.794Z,100596.31
2022-08-07T02:26:32.930Z,100596.06
2022-08-07T02:32:07.257Z,100599.75
2022-08-07T02:37:44.178Z,100597.31
2022-08-07T02:43:14.281Z,100604.25
2022-08-07T02:48:54.667Z,100603.72
2022-08-07T02:54:27.810Z,100607.53
2022-08-07T03:00:01.394Z,100609.44
2022-08-07T03:05:38.839Z,100604.34
2022-08-07T03:11:11.385Z,100608.75
2022-08-07T03:16:44.221Z,100609.03
2022-08-07T03:22:19.056Z,100609.88
2022-08-07T03:27:59.318Z,100612.66
2022-08-07T03:33:40.223Z,100617.81
2022-08-07T03:39:15.215Z,100614.34
2022-08-07T03:44:47.342Z,100625.56
2022-08-07T03:50:25.120Z,100613.31
2022-08-07T03:56:04.373Z,100618.06
2022-08-07T04:01:45.206Z,100622.78
2022-08-07T04:07:17.721Z,100615.16
2022-08-07T04:12:54.199Z,100618.03
2022-08-07T04:18:56.633Z,100617.97
2022-08-07T04:24:34.161Z,100616.94
2022-08-07T04:30:21.719Z,100628.56
2022-08-07T04:36:06.441Z,100622.38
2022-08-07T04:41:36.838Z,100619.72
2022-08-07T04:47:57.135Z,100625.59
2022-08-07T04:53:09.233Z,100613.78
2022-08-07T05:00:07.922Z,100632.97
2022-08-07T05:04:54.782Z,100625.69
2022-08-07T05:10:35.216Z,100631.59
2022-08-07T05:16:08.511Z,100645.16
2022-08-07T05:22:00.691Z,100644.16
2022-08-07T05:28:01.954Z,100642.47
2022-08-07T05:33:26.065Z,100643.66
2022-08-07T05:39:08.648Z,100642.81
2022-08-07T05:45:04.400Z,100652.41
2022-08-07T05:50:39.356Z,100647.75
2022-08-07T05:56:16.516Z,100646.69
2022-08-07T06:01:51.582Z,100641.88
2022-08-07T06:07:22.729Z,100658.03
2022-08-07T06:12:54.902Z,100649.56
2022-08-07T06:18:24.401Z,100653.28
2022-08-07T06:24:52.437Z,100649.13
2022-08-07T06:29:48.961Z,100653.94
2022-08-07T06:35:19.845Z,100647.50
2022-08-07T06:40:54.466Z,100650.31
2022-08-07T06:46:35.283Z,100645.00
2022-08-07T06:52:10.354Z,100650.25
2022-08-07T06:57:49.928Z,100643.38
2022-08-07T07:03:49.049Z,100649.03
2022-08-07T07:09:24.632Z,100657.25
2022-08-07T07:15:08.591Z,100650.81
2022-08-07T07:20:57.833Z,100657.06
2022-08-07T07:26:36.614Z,100654.94
2022-08-07T07:32:12.202Z,100658.97
2022-08-07T07:37:49.949Z,100653.47
2022-08-07T07:43:47.678Z,100647.03
2022-08-07T07:50:33.220Z,100648.59
2022-08-07T07:55:13.167Z,100643.00
2022-08-07T08:00:43.808Z,100648.25
2022-08-07T08:06:19.853Z,100643.00
2022-08-07T08:12:01.557Z,100652.19
2022-08-07T08:17:57.249Z,100642.69
2022-08-07T08:23:46.939Z,100649.13
2022-08-07T08:29:18.755Z,100638.38
2022-08-07T08:34:51.547Z,100635.78
2022-08-07T08:40:28.673Z,100642.25
2022-08-07T08:46:07.571Z,100643.97
2022-08-07T08:51:49.862Z,100640.59
2022-08-07T08:57:39.256Z,100634.69
2022-08-07T09:03:20.322Z,100629.66
2022-08-07T09:08:57.977Z,100627.59
2022-08-07T09:14:35.329Z,100626.69
2022-08-07T09:20:35.466Z,100625.38
2022-08-07T09:26:20.913Z,100629.25
2022-08-07T09:32:00.621Z,100620.84
2022-08-07T09:37:53.561Z,100625.59
2022-08-07T09:43:40.031Z,100626.56
2022-08-07T09:50:02.234Z,100620.25
2022-08-07T09:56:03.106Z,100618.69
2022-08-07T10:01:54.391Z,100612.63
2022-08-07T10:07:52.619Z,100613.88
2022-08-07T10:14:00.941Z,100608.19
2022-08-07T10:19:45.425Z,100607.38
2022-08-07T10:25:32.853Z,100602.91
2022-08-07T10:31:38.476Z,100602.84
2022-08-07T10:38:00.640Z,100592.00
2022-08-07T10:43:34.372Z,100599.28
2022-08-07T10:49:14.547Z,100591.91
2022-08-07T10:54:53.529Z,100589.91
2022-08-07T11:00:39.423Z,100581.81
2022-08-07T11:06:23.002Z,100591.09
2022-08-07T11:12:03.405Z,100589.91
2022-08-07T11:17:45.768Z,100588.56
2022-08-07T11:23:30.552Z,100583.53
2022-08-07T11:29:13.334Z,100575.31
2022-08-07T11:35:00.838Z,100576.06
2022-08-07T11:40:45.126Z,100573.44
2022-08-07T11:46:36.761Z,100571.94
2022-08-07T11:52:29.400Z,100563.91
2022-08-07T11:58:16.653Z,100553.78
2022-08-07T12:04:10.340Z,100555.78
2022-08-07T12:09:49.374Z,100553.66
2022-08-07T12:15:46.335Z,100548.53
2022-08-07T12:21:55.162Z,100556.09
2022-08-07T12:27:16.811Z,100540.06
2022-08-07T12:32:57.343Z,100523.94
2022-08-07T12:38:36.980Z,100529.66
2022-08-07T12:44:13.253Z,100523.13
2022-08-07T12:50:00.240Z,100534.41
2022-08-07T12:55:41.328Z,100523.00
2022-08-07T13:08:12.712Z,100526.25
2022-08-07T13:13:57.653Z,100527.88
2022-08-07T13:19:45.921Z,100527.78
2022-08-07T13:25:30.618Z,100528.47
2022-08-07T13:31:06.426Z,100526.97
2022-08-07T13:36:50.217Z,100527.75
2022-08-07T13:42:25.503Z,100519.22
2022-08-07T13:48:07.809Z,100509.06
2022-08-07T13:53:59.290Z,100508.94
2022-08-07T13:59:33.914Z,100505.75
2022-08-07T14:05:05.567Z,100505.94
2022-08-07T14:10:42.306Z,100511.09
2022-08-07T14:16:16.889Z,100501.81
2022-08-07T14:22:02.283Z,100504.31
2022-08-07T14:28:12.357Z,100509.94
2022-08-07T14:33:28.303Z,100514.75
2022-08-07T14:40:16.274Z,100519.25
2022-08-07T14:45:21.244Z,100516.09
2022-08-07T14:50:56.351Z,100511.28
2022-08-07T14:56:29.986Z,100511.00
2022-08-07T15:02:33.994Z,100519.84
2022-08-07T15:08:08.867Z,100513.28
2022-08-07T15:13:49.829Z,100526.94
2022-08-07T15:19:21.505Z,100533.22
2022-08-07T15:31:07.839Z,100530.78
2022-08-07T15:37:03.771Z,100545.00
2022-08-07T15:42:52.142Z,100538.88
2022-08-07T15:48:26.084Z,100556.22
2022-08-07T15:54:01.828Z,100551.66
2022-08-07T15:59:39.671Z,100567.13
2022-08-07T16:05:17.968Z,100572.94
2022-08-07T16:10:53.243Z,100565.41
2022-08-07T16:16:48.269Z,100576.84
2022-08-07T16:22:55.382Z,100571.22
2022-08-07T16:29:18.302Z,100586.59
2022-08-07T16:34:39.583Z,100585.72
2022-08-07T16:40:28.774Z,100589.84
2022-08-07T16:52:49.324Z,100592.56
2022-08-07T16:58:21.260Z,100597.13
2022-08-07T17:04:04.682Z,100598.75
2022-08-07T17:10:06.184Z,100605.38
2022-08-07T17:15:44.531Z,100613.59
2022-08-07T17:21:23.627Z,100617.00
2022-08-07T17:27:01.532Z,100613.66
2022-08-07T17:32:36.499Z,100629.16
2022-08-07T17:38:33.393Z,100631.22
2022-08-07T17:44:15.588Z,100646.25
2022-08-07T17:50:03.241Z,100648.97
2022-08-07T17:55:55.661Z,100652.88
2022-08-07T18:01:38.103Z,100645.81
2022-08-07T18:07:24.696Z,100650.19
2022-08-07T18:13:15.381Z,100654.53
2022-08-07T18:21:04.096Z,100666.31
2022-08-07T18:24:44.343Z,100669.19
2022-08-07T18:30:31.238Z,100675.31
2022-08-07T18:36:15.969Z,100677.94
2022-08-07T18:41:56.662Z,100678.59
2022-08-07T18:47:45.327Z,100679.50
2022-08-07T18:53:36.730Z,100667.44
2022-08-07T18:59:47.040Z,100671.81
2022-08-07T19:06:02.109Z,100675.78
2022-08-07T19:11:39.329Z,100676.25
2022-08-07T19:18:04.019Z,100682.06
2022-08-07T19:23:58.268Z,100672.56
2022-08-07T19:30:55.555Z,100665.53
2022-08-07T19:35:22.503Z,100671.84
2022-08-07T19:40:53.316Z,100675.22
2022-08-07T19:46:30.433Z,100677.41
2022-08-07T19:52:01.376Z,100683.97
2022-08-07T19:58:00.063Z,100677.56
2022-08-07T20:03:35.134Z,100678.44
2022-08-07T20:09:07.490Z,100681.88
2022-08-07T20:15:00.148Z,100678.38
2022-08-07T20:20:31.007Z,100689.06
2022-08-07T20:26:10.061Z,100684.16
2022-08-07T20:31:46.543Z,100692.03
2022-08-07T20:37:24.342Z,100685.97
2022-08-07T20:42:57.953Z,100702.47
2022-08-07T20:48:30.855Z,100700.63
2022-08-07T20:54:08.711Z,100697.53
2022-08-07T21:00:07.107Z,100697.63
2022-08-07T21:05:51.442Z,100707.81
2022-08-07T21:11:46.124Z,100709.69
2022-08-07T21:18:06.624Z,100709.69
2022-08-07T21:23:26.318Z,100712.59
2022-08-07T21:29:01.716Z,100714.25
2022-08-07T21:34:46.088Z,100716.50
2022-08-07T21:40:28.848Z,100725.56
2022-08-07T21:46:25.333Z,100714.00
2022-08-07T21:52:09.061Z,100717.63
2022-08-07T21:57:52.860Z,100727.28
2022-08-07T22:03:31.080Z,100725.06
2022-08-07T22:09:07.046Z,100725.47
2022-08-07T22:14:59.296Z,100732.53
2022-08-07T22:20:43.019Z,100729.34
2022-08-07T22:26:20.471Z,100720.28
2022-08-07T22:32:06.314Z,100727.13
2022-08-07T22:38:04.764Z,100729.75
2022-08-07T22:43:38.714Z,100721.00
2022-08-07T22:49:33.890Z,100713.59
2022-08-07T22:55:44.462Z,100726.00
2022-08-07T23:01:27.177Z,100717.81
2022-08-07T23:07:39.998Z,100721.22
2022-08-07T23:13:48.474Z,100719.66
2022-08-07T23:19:59.871Z,100722.03
2022-08-07T23:25:48.963Z,100728.34
2022-08-07T23:32:49.386Z,100727.88
2022-08-07T23:38:01.621Z,100725.81
2022-08-07T23:44:07.004Z,100735.25
2022-08-07T23:49:52.788Z,100744.19
2022-08-07T23:55:51.970Z,100740.31
